sensor_id;sensor_type;location;lat;lon;timestamp;temperature;humidity
9640;DHT22;51745;50.872;4.732;2022-10-16T00:02:13;12.70;99.90
9640;DHT22;51745;50.872;4.732;2022-10-16T00:05:01;12.70;99.90
9640;DHT22;51745;50.872;4.732;2022-10-16T00:07:49;12.60;99.90
9640;DHT22;51745;50.872;4.732;2022-10-16T00:10:38;12.70;99.90
9640;DHT22;51745;50.872;4.732;2022-10-16T00:13:27;12.70;99.90
9640;DHT22;51745;50.872;4.732;2022-10-16T00:16:14;12.70;99.90
9640;DHT22;51745;50.872;4.732;2022-10-16T00:19:02;12.70;99.90
9640;DHT22;51745;50.872;4.732;2022-10-16T00:21:50;12.70;99.90
9640;DHT22;51745;50.872;4.732;2022-10-16T00:24:38;12.70;99.90
9640;DHT22;51745;50.872;4.732;2022-10-16T00:27:27;12.70;99.90
9640;DHT22;51745;50.872;4.732;2022-10-16T00:30:15;12.70;99.90
9640;DHT22;51745;50.872;4.732;2022-10-16T00:33:04;12.70;99.90
9640;DHT22;51745;50.872;4.732;2022-10-16T00:35:52;12.70;99.90
9640;DHT22;51745;50.872;4.732;2022-10-16T00:38:40;12.00;99.90
9640;DHT22;51745;50.872;4.732;2022-10-16T00:41:27;12.70;99.90
9640;DHT22;51745;50.872;4.732;2022-10-16T00:47:26;12.70;99.90
9640;DHT22;51745;50.872;4.732;2022-10-16T00:50:16;12.60;99.90
9640;DHT22;51745;50.872;4.732;2022-10-16T00:53:05;12.70;99.90
9640;DHT22;51745;50.872;4.732;2022-10-16T00:55:53;12.60;99.90
9640;DHT22;51745;50.872;4.732;2022-10-16T00:58:41;12.60;99.90
9640;DHT22;51745;50.872;4.732;2022-10-16T01:01:29;12.60;99.90
9640;DHT22;51745;50.872;4.732;2022-10-16T01:04:18;12.50;99.90
9640;DHT22;51745;50.872;4.732;2022-10-16T01:07:10;12.50;99.90
9640;DHT22;51745;50.872;4.732;2022-10-16T01:10:02;12.70;99.90
9640;DHT22;51745;50.872;4.732;2022-10-16T01:12:55;12.60;99.90
9640;DHT22;51745;50.872;4.732;2022-10-16T01:15:47;12.60;99.90
9640;DHT22;51745;50.872;4.732;2022-10-16T01:18:42;12.50;99.90
9640;DHT22;51745;50.872;4.732;2022-10-16T01:21:33;12.50;99.90
9640;DHT22;51745;50.872;4.732;2022-10-16T01:24:27;13.10;99.90
9640;DHT22;51745;50.872;4.732;2022-10-16T01:27:19;12.50;99.90
9640;DHT22;51745;50.872;4.732;2022-10-16T01:30:09;12.50;99.90
9640;DHT22;51745;50.872;4.732;2022-10-16T01:33:01;12.50;99.90
9640;DHT22;51745;50.872;4.732;2022-10-16T01:35:52;12.60;99.90
9640;DHT22;51745;50.872;4.732;2022-10-16T01:38:40;12.50;99.90
9640;DHT22;51745;50.872;4.732;2022-10-16T01:41:30;12.50;99.90
9640;DHT22;51745;50.872;4.732;2022-10-16T01:44:21;12.50;99.90
9640;DHT22;51745;50.872;4.732;2022-10-16T01:47:10;12.50;99.90
9640;DHT22;51745;50.872;4.732;2022-10-16T01:49:59;12.50;99.90
9640;DHT22;51745;50.872;4.732;2022-10-16T01:52:49;12.50;99.90
9640;DHT22;51745;50.872;4.732;2022-10-16T01:55:40;12.50;99.90
9640;DHT22;51745;50.872;4.732;2022-10-16T01:58:32;12.50;99.90
9640;DHT22;51745;50.872;4.732;2022-10-16T02:01:26;12.50;99.90
9640;DHT22;51745;50.872;4.732;2022-10-16T02:04:16;12.50;99.90
9640;DHT22;51745;50.872;4.732;2022-10-16T02:07:04;12.50;99.90
9640;DHT22;51745;50.872;4.732;2022-10-16T02:09:51;13.30;99.90
9640;DHT22;51745;50.872;4.732;2022-10-16T02:12:40;12.50;99.90
9640;DHT22;51745;50.872;4.732;2022-10-16T02:15:30;12.40;99.90
9640;DHT22;51745;50.872;4.732;2022-10-16T02:18:19;12.40;99.90
9640;DHT22;51745;50.872;4.732;2022-10-16T02:21:11;12.40;99.90
9640;DHT22;51745;50.872;4.732;2022-10-16T02:24:02;12.50;99.90
9640;DHT22;51745;50.872;4.732;2022-10-16T02:26:51;12.50;99.90
9640;DHT22;51745;50.872;4.732;2022-10-16T02:29:41;12.50;99.90
9640;DHT22;51745;50.872;4.732;2022-10-16T02:32:32;12.60;99.90
9640;DHT22;51745;50.872;4.732;2022-10-16T02:35:22;12.50;99.90
9640;DHT22;51745;50.872;4.732;2022-10-16T02:38:11;12.60;99.90
9640;DHT22;51745;50.872;4.732;2022-10-16T02:40:59;12.60;99.90
9640;DHT22;51745;50.872;4.732;2022-10-16T02:43:47;12.50;99.90
9640;DHT22;51745;50.872;4.732;2022-10-16T02:46:35;12.40;99.90
9640;DHT22;51745;50.872;4.732;2022-10-16T02:49:23;12.50;99.90
9640;DHT22;51745;50.872;4.732;2022-10-16T02:52:14;12.40;99.90
9640;DHT22;51745;50.872;4.732;2022-10-16T02:55:01;12.40;99.90
9640;DHT22;51745;50.872;4.732;2022-10-16T02:57:49;12.40;99.90
9640;DHT22;51745;50.872;4.732;2022-10-16T03:00:37;12.40;99.90
9640;DHT22;51745;50.872;4.732;2022-10-16T03:03:26;12.50;99.90
9640;DHT22;51745;50.872;4.732;2022-10-16T03:06:14;12.40;99.90
9640;DHT22;51745;50.872;4.732;2022-10-16T03:09:04;12.30;99.90
9640;DHT22;51745;50.872;4.732;2022-10-16T03:11:51;12.40;99.90
9640;DHT22;51745;50.872;4.732;2022-10-16T03:14:39;12.40;99.90
9640;DHT22;51745;50.872;4.732;2022-10-16T03:17:29;12.40;99.90
9640;DHT22;51745;50.872;4.732;2022-10-16T03:20:16;12.40;99.90
9640;DHT22;51745;50.872;4.732;2022-10-16T03:23:04;12.50;99.90
9640;DHT22;51745;50.872;4.732;2022-10-16T03:25:55;12.50;99.90
9640;DHT22;51745;50.872;4.732;2022-10-16T03:28:43;12.50;99.90
9640;DHT22;51745;50.872;4.732;2022-10-16T03:31:31;12.50;99.90
9640;DHT22;51745;50.872;4.732;2022-10-16T03:34:19;12.50;99.90
9640;DHT22;51745;50.872;4.732;2022-10-16T03:37:07;12.50;99.90
9640;DHT22;51745;50.872;4.732;2022-10-16T03:39:55;12.60;99.90
9640;DHT22;51745;50.872;4.732;2022-10-16T03:42:44;12.50;99.90
9640;DHT22;51745;50.872;4.732;2022-10-16T03:45:33;12.50;99.90
9640;DHT22;51745;50.872;4.732;2022-10-16T03:48:20;12.40;99.90
9640;DHT22;51745;50.872;4.732;2022-10-16T03:51:08;12.50;99.90
9640;DHT22;51745;50.872;4.732;2022-10-16T03:53:56;12.40;99.90
9640;DHT22;51745;50.872;4.732;2022-10-16T03:56:45;12.30;99.90
9640;DHT22;51745;50.872;4.732;2022-10-16T03:59:34;12.50;99.90
9640;DHT22;51745;50.872;4.732;2022-10-16T04:02:22;13.50;99.90
9640;DHT22;51745;50.872;4.732;2022-10-16T04:05:11;12.20;99.90
9640;DHT22;51745;50.872;4.732;2022-10-16T04:07:58;12.20;99.90
9640;DHT22;51745;50.872;4.732;2022-10-16T04:10:46;12.10;99.90
9640;DHT22;51745;50.872;4.732;2022-10-16T04:13:34;12.00;99.90
9640;DHT22;51745;50.872;4.732;2022-10-16T04:16:23;12.00;99.90
9640;DHT22;51745;50.872;4.732;2022-10-16T04:19:13;12.10;99.90
9640;DHT22;51745;50.872;4.732;2022-10-16T04:22:00;12.10;99.90
9640;DHT22;51745;50.872;4.732;2022-10-16T04:24:48;12.20;99.90
9640;DHT22;51745;50.872;4.732;2022-10-16T04:27:37;12.10;99.90
9640;DHT22;51745;50.872;4.732;2022-10-16T04:30:30;12.10;99.90
9640;DHT22;51745;50.872;4.732;2022-10-16T04:33:21;12.20;99.90
9640;DHT22;51745;50.872;4.732;2022-10-16T04:36:09;12.20;99.90
9640;DHT22;51745;50.872;4.732;2022-10-16T04:38:57;12.10;99.90
9640;DHT22;51745;50.872;4.732;2022-10-16T04:41:45;12.10;99.90
9640;DHT22;51745;50.872;4.732;2022-10-16T04:44:33;12.10;99.90
9640;DHT22;51745;50.872;4.732;2022-10-16T04:47:21;12.00;99.90
9640;DHT22;51745;50.872;4.732;2022-10-16T04:50:11;12.10;99.90
9640;DHT22;51745;50.872;4.732;2022-10-16T04:53:05;12.10;99.90
9640;DHT22;51745;50.872;4.732;2022-10-16T04:55:53;12.10;99.90
9640;DHT22;51745;50.872;4.732;2022-10-16T04:58:42;12.10;99.90
9640;DHT22;51745;50.872;4.732;2022-10-16T05:01:29;12.10;99.90
9640;DHT22;51745;50.872;4.732;2022-10-16T05:04:18;12.10;99.90
9640;DHT22;51745;50.872;4.732;2022-10-16T05:07:08;11.40;99.90
9640;DHT22;51745;50.872;4.732;2022-10-16T05:09:56;12.10;99.90
9640;DHT22;51745;50.872;4.732;2022-10-16T05:12:44;12.20;99.90
9640;DHT22;51745;50.872;4.732;2022-10-16T05:15:35;12.10;99.90
9640;DHT22;51745;50.872;4.732;2022-10-16T05:18:24;12.30;99.90
9640;DHT22;51745;50.872;4.732;2022-10-16T05:21:14;11.10;99.90
9640;DHT22;51745;50.872;4.732;2022-10-16T05:24:03;12.10;99.90
9640;DHT22;51745;50.872;4.732;2022-10-16T05:26:51;12.10;99.90
9640;DHT22;51745;50.872;4.732;2022-10-16T05:29:38;12.20;99.90
9640;DHT22;51745;50.872;4.732;2022-10-16T05:32:26;12.20;99.90
9640;DHT22;51745;50.872;4.732;2022-10-16T05:35:14;12.20;99.90
9640;DHT22;51745;50.872;4.732;2022-10-16T05:38:03;12.10;99.90
9640;DHT22;51745;50.872;4.732;2022-10-16T05:40:52;12.10;99.90
9640;DHT22;51745;50.872;4.732;2022-10-16T05:43:39;12.20;99.90
9640;DHT22;51745;50.872;4.732;2022-10-16T05:46:27;12.10;99.90
9640;DHT22;51745;50.872;4.732;2022-10-16T05:49:16;12.10;99.90
9640;DHT22;51745;50.872;4.732;2022-10-16T05:52:04;12.00;99.90
9640;DHT22;51745;50.872;4.732;2022-10-16T05:54:56;12.10;99.90
9640;DHT22;51745;50.872;4.732;2022-10-16T05:57:45;12.10;99.90
9640;DHT22;51745;50.872;4.732;2022-10-16T06:00:34;12.10;99.90
9640;DHT22;51745;50.872;4.732;2022-10-16T06:03:22;12.10;99.90
9640;DHT22;51745;50.872;4.732;2022-10-16T06:06:11;12.10;99.90
9640;DHT22;51745;50.872;4.732;2022-10-16T06:09:00;12.10;99.90
9640;DHT22;51745;50.872;4.732;2022-10-16T06:11:52;12.10;99.90
9640;DHT22;51745;50.872;4.732;2022-10-16T06:14:41;12.10;99.90
9640;DHT22;51745;50.872;4.732;2022-10-16T06:17:29;12.10;99.90
9640;DHT22;51745;50.872;4.732;2022-10-16T06:20:20;12.10;99.90
9640;DHT22;51745;50.872;4.732;2022-10-16T06:23:08;12.80;99.90
9640;DHT22;51745;50.872;4.732;2022-10-16T06:26:03;12.10;99.90
9640;DHT22;51745;50.872;4.732;2022-10-16T06:28:51;12.10;99.90
9640;DHT22;51745;50.872;4.732;2022-10-16T06:31:40;12.20;99.90
9640;DHT22;51745;50.872;4.732;2022-10-16T06:34:28;12.10;99.90
9640;DHT22;51745;50.872;4.732;2022-10-16T06:37:16;12.20;99.90
9640;DHT22;51745;50.872;4.732;2022-10-16T06:40:03;12.10;99.90
9640;DHT22;51745;50.872;4.732;2022-10-16T06:42:54;12.10;99.90
9640;DHT22;51745;50.872;4.732;2022-10-16T06:45:42;12.10;99.90
9640;DHT22;51745;50.872;4.732;2022-10-16T06:48:31;12.70;99.90
9640;DHT22;51745;50.872;4.732;2022-10-16T06:51:19;12.20;99.90
9640;DHT22;51745;50.872;4.732;2022-10-16T06:54:10;12.20;99.90
9640;DHT22;51745;50.872;4.732;2022-10-16T06:57:02;12.20;99.90
9640;DHT22;51745;50.872;4.732;2022-10-16T06:59:50;12.20;99.90
9640;DHT22;51745;50.872;4.732;2022-10-16T07:02:41;12.20;99.90
9640;DHT22;51745;50.872;4.732;2022-10-16T07:05:30;12.30;99.90
9640;DHT22;51745;50.872;4.732;2022-10-16T07:08:17;12.30;99.90
9640;DHT22;51745;50.872;4.732;2022-10-16T07:11:06;12.40;99.90
9640;DHT22;51745;50.872;4.732;2022-10-16T07:13:54;12.50;99.90
9640;DHT22;51745;50.872;4.732;2022-10-16T07:16:42;12.60;99.90
9640;DHT22;51745;50.872;4.732;2022-10-16T07:19:30;12.70;99.90
9640;DHT22;51745;50.872;4.732;2022-10-16T07:22:21;12.80;99.90
9640;DHT22;51745;50.872;4.732;2022-10-16T07:25:10;12.90;99.90
9640;DHT22;51745;50.872;4.732;2022-10-16T07:27:58;13.00;99.90
9640;DHT22;51745;50.872;4.732;2022-10-16T07:30:46;13.10;99.90
9640;DHT22;51745;50.872;4.732;2022-10-16T07:33:34;13.10;99.90
9640;DHT22;51745;50.872;4.732;2022-10-16T07:36:22;13.10;99.90
9640;DHT22;51745;50.872;4.732;2022-10-16T07:39:12;13.20;99.90
9640;DHT22;51745;50.872;4.732;2022-10-16T07:42:01;13.50;99.90
9640;DHT22;51745;50.872;4.732;2022-10-16T07:44:51;13.20;99.90
9640;DHT22;51745;50.872;4.732;2022-10-16T07:47:38;13.20;99.90
9640;DHT22;51745;50.872;4.732;2022-10-16T07:50:26;13.20;99.90
9640;DHT22;51745;50.872;4.732;2022-10-16T07:53:17;13.20;99.90
9640;DHT22;51745;50.872;4.732;2022-10-16T07:56:11;13.30;99.90
9640;DHT22;51745;50.872;4.732;2022-10-16T07:58:59;13.30;99.90
9640;DHT22;51745;50.872;4.732;2022-10-16T08:01:46;13.40;99.90
9640;DHT22;51745;50.872;4.732;2022-10-16T08:04:36;13.50;99.90
9640;DHT22;51745;50.872;4.732;2022-10-16T08:07:24;13.50;99.90
9640;DHT22;51745;50.872;4.732;2022-10-16T08:10:14;13.60;99.90
9640;DHT22;51745;50.872;4.732;2022-10-16T08:13:04;13.70;99.90
9640;DHT22;51745;50.872;4.732;2022-10-16T08:15:53;13.70;99.90
9640;DHT22;51745;50.872;4.732;2022-10-16T08:18:41;13.80;99.90
9640;DHT22;51745;50.872;4.732;2022-10-16T08:21:29;13.70;99.90
9640;DHT22;51745;50.872;4.732;2022-10-16T08:24:18;13.80;99.90
9640;DHT22;51745;50.872;4.732;2022-10-16T08:27:06;13.70;99.90
9640;DHT22;51745;50.872;4.732;2022-10-16T08:29:56;13.90;99.90
9640;DHT22;51745;50.872;4.732;2022-10-16T08:32:43;13.80;99.90
9640;DHT22;51745;50.872;4.732;2022-10-16T08:35:31;13.90;99.90
9640;DHT22;51745;50.872;4.732;2022-10-16T08:38:21;13.90;99.90
9640;DHT22;51745;50.872;4.732;2022-10-16T08:41:24;13.70;99.90
9640;DHT22;51745;50.872;4.732;2022-10-16T08:47:26;14.00;99.90
9640;DHT22;51745;50.872;4.732;2022-10-16T08:50:14;14.20;99.90
9640;DHT22;51745;50.872;4.732;2022-10-16T08:53:05;14.30;99.90
9640;DHT22;51745;50.872;4.732;2022-10-16T08:55:53;14.30;99.90
9640;DHT22;51745;50.872;4.732;2022-10-16T08:58:48;14.30;99.90
9640;DHT22;51745;50.872;4.732;2022-10-16T09:01:41;14.30;99.90
9640;DHT22;51745;50.872;4.732;2022-10-16T09:04:46;14.40;99.90
9640;DHT22;51745;50.872;4.732;2022-10-16T09:07:42;14.50;99.90
9640;DHT22;51745;50.872;4.732;2022-10-16T09:10:36;14.60;99.90
9640;DHT22;51745;50.872;4.732;2022-10-16T09:13:29;14.70;99.90
9640;DHT22;51745;50.872;4.732;2022-10-16T09:16:18;14.70;99.90
9640;DHT22;51745;50.872;4.732;2022-10-16T09:19:09;14.70;99.90
9640;DHT22;51745;50.872;4.732;2022-10-16T09:22:04;14.80;99.90
9640;DHT22;51745;50.872;4.732;2022-10-16T09:24:59;14.80;99.90
9640;DHT22;51745;50.872;4.732;2022-10-16T09:27:48;14.80;99.90
9640;DHT22;51745;50.872;4.732;2022-10-16T09:30:35;15.10;99.90
9640;DHT22;51745;50.872;4.732;2022-10-16T09:33:25;15.00;99.90
9640;DHT22;51745;50.872;4.732;2022-10-16T09:36:18;15.10;99.90
9640;DHT22;51745;50.872;4.732;2022-10-16T09:39:08;15.10;99.90
9640;DHT22;51745;50.872;4.732;2022-10-16T09:41:57;15.10;99.90
9640;DHT22;51745;50.872;4.732;2022-10-16T09:44:47;15.20;99.90
9640;DHT22;51745;50.872;4.732;2022-10-16T09:47:37;15.30;99.90
9640;DHT22;51745;50.872;4.732;2022-10-16T09:50:27;15.40;99.90
9640;DHT22;51745;50.872;4.732;2022-10-16T09:53:15;15.40;99.90
9640;DHT22;51745;50.872;4.732;2022-10-16T09:56:11;15.50;99.90
9640;DHT22;51745;50.872;4.732;2022-10-16T09:59:00;15.50;99.90
9640;DHT22;51745;50.872;4.732;2022-10-16T10:01:49;15.60;99.90
9640;DHT22;51745;50.872;4.732;2022-10-16T10:04:37;15.70;99.90
9640;DHT22;51745;50.872;4.732;2022-10-16T10:07:26;15.70;99.90
9640;DHT22;51745;50.872;4.732;2022-10-16T10:10:20;15.60;99.90
9640;DHT22;51745;50.872;4.732;2022-10-16T10:13:16;15.70;99.90
9640;DHT22;51745;50.872;4.732;2022-10-16T10:16:05;15.70;99.90
9640;DHT22;51745;50.872;4.732;2022-10-16T10:18:57;14.30;99.90
9640;DHT22;51745;50.872;4.732;2022-10-16T10:21:45;15.90;99.90
9640;DHT22;51745;50.872;4.732;2022-10-16T10:24:33;16.00;99.90
9640;DHT22;51745;50.872;4.732;2022-10-16T10:27:21;16.00;99.90
9640;DHT22;51745;50.872;4.732;2022-10-16T10:30:14;16.00;99.90
9640;DHT22;51745;50.872;4.732;2022-10-16T10:33:08;16.00;99.90
9640;DHT22;51745;50.872;4.732;2022-10-16T10:36:01;16.00;99.90
9640;DHT22;51745;50.872;4.732;2022-10-16T10:38:52;16.10;99.90
9640;DHT22;51745;50.872;4.732;2022-10-16T10:45:02;16.30;99.90
9640;DHT22;51745;50.872;4.732;2022-10-16T10:48:11;16.40;99.90
9640;DHT22;51745;50.872;4.732;2022-10-16T10:51:00;16.60;99.90
9640;DHT22;51745;50.872;4.732;2022-10-16T10:53:49;16.70;99.90
9640;DHT22;51745;50.872;4.732;2022-10-16T10:56:45;16.70;99.90
9640;DHT22;51745;50.872;4.732;2022-10-16T11:02:41;16.80;99.90
9640;DHT22;51745;50.872;4.732;2022-10-16T11:05:39;16.80;99.90
9640;DHT22;51745;50.872;4.732;2022-10-16T11:08:28;16.80;99.90
9640;DHT22;51745;50.872;4.732;2022-10-16T11:11:19;17.00;99.90
9640;DHT22;51745;50.872;4.732;2022-10-16T11:14:11;17.00;99.90
9640;DHT22;51745;50.872;4.732;2022-10-16T11:17:02;16.90;99.90
9640;DHT22;51745;50.872;4.732;2022-10-16T11:19:52;16.80;99.90
9640;DHT22;51745;50.872;4.732;2022-10-16T11:22:44;16.60;99.90
9640;DHT22;51745;50.872;4.732;2022-10-16T11:25:35;16.60;99.90
9640;DHT22;51745;50.872;4.732;2022-10-16T11:28:23;16.70;99.90
9640;DHT22;51745;50.872;4.732;2022-10-16T11:31:17;16.70;99.90
9640;DHT22;51745;50.872;4.732;2022-10-16T11:34:09;16.70;99.90
9640;DHT22;51745;50.872;4.732;2022-10-16T11:37:04;16.80;99.90
9640;DHT22;51745;50.872;4.732;2022-10-16T11:39:55;16.90;99.90
9640;DHT22;51745;50.872;4.732;2022-10-16T11:42:46;17.10;99.90
9640;DHT22;51745;50.872;4.732;2022-10-16T11:45:38;17.20;99.90
9640;DHT22;51745;50.872;4.732;2022-10-16T11:48:27;17.10;99.90
9640;DHT22;51745;50.872;4.732;2022-10-16T11:51:19;17.10;99.90
9640;DHT22;51745;50.872;4.732;2022-10-16T11:54:10;17.10;99.90
9640;DHT22;51745;50.872;4.732;2022-10-16T11:57:07;17.10;99.90
9640;DHT22;51745;50.872;4.732;2022-10-16T11:59:57;17.10;99.90
9640;DHT22;51745;50.872;4.732;2022-10-16T12:02:48;17.20;99.90
9640;DHT22;51745;50.872;4.732;2022-10-16T12:05:41;17.20;99.90
9640;DHT22;51745;50.872;4.732;2022-10-16T12:08:35;17.20;99.90
9640;DHT22;51745;50.872;4.732;2022-10-16T12:11:24;17.00;99.90
9640;DHT22;51745;50.872;4.732;2022-10-16T12:14:21;17.00;99.90
9640;DHT22;51745;50.872;4.732;2022-10-16T12:17:22;17.10;99.90
9640;DHT22;51745;50.872;4.732;2022-10-16T12:20:22;17.30;99.90
9640;DHT22;51745;50.872;4.732;2022-10-16T12:23:16;17.50;99.90
9640;DHT22;51745;50.872;4.732;2022-10-16T12:26:05;17.70;99.90
9640;DHT22;51745;50.872;4.732;2022-10-16T12:28:54;17.80;99.90
9640;DHT22;51745;50.872;4.732;2022-10-16T12:31:46;17.90;99.90
9640;DHT22;51745;50.872;4.732;2022-10-16T12:34:43;18.00;99.90
9640;DHT22;51745;50.872;4.732;2022-10-16T12:37:32;18.10;99.90
9640;DHT22;51745;50.872;4.732;2022-10-16T12:40:25;18.20;99.90
9640;DHT22;51745;50.872;4.732;2022-10-16T12:43:27;18.20;99.90
9640;DHT22;51745;50.872;4.732;2022-10-16T12:46:23;18.20;99.90
9640;DHT22;51745;50.872;4.732;2022-10-16T12:49:21;18.20;99.90
9640;DHT22;51745;50.872;4.732;2022-10-16T12:52:22;18.30;99.90
9640;DHT22;51745;50.872;4.732;2022-10-16T12:55:13;18.30;99.90
9640;DHT22;51745;50.872;4.732;2022-10-16T12:58:09;18.20;99.90
9640;DHT22;51745;50.872;4.732;2022-10-16T13:01:03;18.20;99.90
9640;DHT22;51745;50.872;4.732;2022-10-16T13:04:10;18.20;99.90
9640;DHT22;51745;50.872;4.732;2022-10-16T13:07:03;18.20;99.90
9640;DHT22;51745;50.872;4.732;2022-10-16T13:10:00;18.20;99.90
9640;DHT22;51745;50.872;4.732;2022-10-16T13:16:03;18.10;99.90
9640;DHT22;51745;50.872;4.732;2022-10-16T13:18:55;18.00;99.90
9640;DHT22;51745;50.872;4.732;2022-10-16T13:21:47;18.00;99.90
9640;DHT22;51745;50.872;4.732;2022-10-16T13:24:42;18.00;99.90
9640;DHT22;51745;50.872;4.732;2022-10-16T13:27:35;18.10;99.90
9640;DHT22;51745;50.872;4.732;2022-10-16T13:30:28;18.30;99.90
9640;DHT22;51745;50.872;4.732;2022-10-16T13:33:16;18.40;99.90
9640;DHT22;51745;50.872;4.732;2022-10-16T13:36:05;18.40;99.90
9640;DHT22;51745;50.872;4.732;2022-10-16T13:39:00;18.20;99.90
9640;DHT22;51745;50.872;4.732;2022-10-16T13:42:03;18.10;99.90
9640;DHT22;51745;50.872;4.732;2022-10-16T13:44:54;18.10;99.90
9640;DHT22;51745;50.872;4.732;2022-10-16T13:47:43;18.10;99.90
9640;DHT22;51745;50.872;4.732;2022-10-16T13:50:30;18.10;99.90
9640;DHT22;51745;50.872;4.732;2022-10-16T13:53:19;18.20;99.90
9640;DHT22;51745;50.872;4.732;2022-10-16T13:56:10;18.30;99.90
9640;DHT22;51745;50.872;4.732;2022-10-16T13:59:00;18.20;99.90
9640;DHT22;51745;50.872;4.732;2022-10-16T14:01:48;18.20;99.90
9640;DHT22;51745;50.872;4.732;2022-10-16T14:04:37;18.10;99.90
9640;DHT22;51745;50.872;4.732;2022-10-16T14:07:26;18.00;99.90
9640;DHT22;51745;50.872;4.732;2022-10-16T14:10:19;18.00;99.90
9640;DHT22;51745;50.872;4.732;2022-10-16T14:13:12;17.80;99.90
9640;DHT22;51745;50.872;4.732;2022-10-16T14:16:05;18.00;99.90
9640;DHT22;51745;50.872;4.732;2022-10-16T14:18:56;17.90;99.90
9640;DHT22;51745;50.872;4.732;2022-10-16T14:21:45;17.90;99.90
9640;DHT22;51745;50.872;4.732;2022-10-16T14:24:33;17.90;99.90
9640;DHT22;51745;50.872;4.732;2022-10-16T14:27:28;17.90;99.90
9640;DHT22;51745;50.872;4.732;2022-10-16T14:30:17;17.80;99.90
9640;DHT22;51745;50.872;4.732;2022-10-16T14:33:20;17.60;99.90
9640;DHT22;51745;50.872;4.732;2022-10-16T14:36:10;17.70;99.90
9640;DHT22;51745;50.872;4.732;2022-10-16T14:39:00;17.50;99.90
9640;DHT22;51745;50.872;4.732;2022-10-16T14:41:49;17.60;99.90
9640;DHT22;51745;50.872;4.732;2022-10-16T14:44:38;17.60;99.90
9640;DHT22;51745;50.872;4.732;2022-10-16T14:47:27;17.60;99.90
9640;DHT22;51745;50.872;4.732;2022-10-16T14:50:17;17.70;99.90
9640;DHT22;51745;50.872;4.732;2022-10-16T14:53:07;17.70;99.90
9640;DHT22;51745;50.872;4.732;2022-10-16T14:55:55;19.00;99.90
9640;DHT22;51745;50.872;4.732;2022-10-16T14:58:46;17.80;99.90
9640;DHT22;51745;50.872;4.732;2022-10-16T15:01:37;17.80;99.90
9640;DHT22;51745;50.872;4.732;2022-10-16T15:04:24;16.10;99.90
9640;DHT22;51745;50.872;4.732;2022-10-16T15:07:17;17.70;99.90
9640;DHT22;51745;50.872;4.732;2022-10-16T15:10:18;17.70;99.90
9640;DHT22;51745;50.872;4.732;2022-10-16T15:13:13;17.60;99.90
9640;DHT22;51745;50.872;4.732;2022-10-16T15:16:01;17.50;99.90
9640;DHT22;51745;50.872;4.732;2022-10-16T15:18:48;17.40;99.90
9640;DHT22;51745;50.872;4.732;2022-10-16T15:21:36;17.50;99.90
9640;DHT22;51745;50.872;4.732;2022-10-16T15:24:25;17.30;99.90
9640;DHT22;51745;50.872;4.732;2022-10-16T15:27:13;17.30;99.90
9640;DHT22;51745;50.872;4.732;2022-10-16T15:30:01;17.30;99.90
9640;DHT22;51745;50.872;4.732;2022-10-16T15:32:49;17.20;99.90
9640;DHT22;51745;50.872;4.732;2022-10-16T15:35:37;17.20;99.90
9640;DHT22;51745;50.872;4.732;2022-10-16T15:38:25;17.10;99.90
9640;DHT22;51745;50.872;4.732;2022-10-16T15:41:15;17.10;99.90
9640;DHT22;51745;50.872;4.732;2022-10-16T15:44:05;17.00;99.90
9640;DHT22;51745;50.872;4.732;2022-10-16T15:46:54;16.90;99.90
9640;DHT22;51745;50.872;4.732;2022-10-16T15:49:41;16.90;99.90
9640;DHT22;51745;50.872;4.732;2022-10-16T15:52:29;16.70;99.90
9640;DHT22;51745;50.872;4.732;2022-10-16T15:55:18;16.70;99.90
9640;DHT22;51745;50.872;4.732;2022-10-16T15:58:07;16.50;99.90
9640;DHT22;51745;50.872;4.732;2022-10-16T16:00:55;16.50;99.90
9640;DHT22;51745;50.872;4.732;2022-10-16T16:03:43;16.50;99.90
9640;DHT22;51745;50.872;4.732;2022-10-16T16:06:32;16.40;99.90
9640;DHT22;51745;50.872;4.732;2022-10-16T16:09:21;16.30;99.90
9640;DHT22;51745;50.872;4.732;2022-10-16T16:12:08;16.20;99.90
9640;DHT22;51745;50.872;4.732;2022-10-16T16:14:58;16.20;99.90
9640;DHT22;51745;50.872;4.732;2022-10-16T16:17:53;16.00;99.90
9640;DHT22;51745;50.872;4.732;2022-10-16T16:20:41;16.00;99.90
9640;DHT22;51745;50.872;4.732;2022-10-16T16:23:30;15.90;99.90
9640;DHT22;51745;50.872;4.732;2022-10-16T16:26:22;15.90;99.90
9640;DHT22;51745;50.872;4.732;2022-10-16T16:29:13;15.90;99.90
9640;DHT22;51745;50.872;4.732;2022-10-16T16:32:02;15.80;99.90
9640;DHT22;51745;50.872;4.732;2022-10-16T16:34:50;15.80;99.90
9640;DHT22;51745;50.872;4.732;2022-10-16T16:37:38;15.20;99.90
9640;DHT22;51745;50.872;4.732;2022-10-16T16:40:26;15.60;99.90
9640;DHT22;51745;50.872;4.732;2022-10-16T16:43:14;15.60;99.90
9640;DHT22;51745;50.872;4.732;2022-10-16T16:46:02;15.50;99.90
9640;DHT22;51745;50.872;4.732;2022-10-16T16:48:51;15.50;99.90
9640;DHT22;51745;50.872;4.732;2022-10-16T16:51:41;15.40;99.90
9640;DHT22;51745;50.872;4.732;2022-10-16T16:54:30;15.50;99.90
9640;DHT22;51745;50.872;4.732;2022-10-16T16:57:19;15.40;99.90
9640;DHT22;51745;50.872;4.732;2022-10-16T17:00:08;15.30;99.90
9640;DHT22;51745;50.872;4.732;2022-10-16T17:02:55;15.40;99.90
9640;DHT22;51745;50.872;4.732;2022-10-16T17:05:46;15.30;99.90
9640;DHT22;51745;50.872;4.732;2022-10-16T17:08:42;16.10;99.90
9640;DHT22;51745;50.872;4.732;2022-10-16T17:11:30;15.30;99.90
9640;DHT22;51745;50.872;4.732;2022-10-16T17:14:18;15.30;99.90
9640;DHT22;51745;50.872;4.732;2022-10-16T17:17:05;15.30;99.90
9640;DHT22;51745;50.872;4.732;2022-10-16T17:19:53;15.50;99.90
9640;DHT22;51745;50.872;4.732;2022-10-16T17:22:43;15.00;99.90
9640;DHT22;51745;50.872;4.732;2022-10-16T17:25:31;15.40;99.90
9640;DHT22;51745;50.872;4.732;2022-10-16T17:28:19;15.30;99.90
9640;DHT22;51745;50.872;4.732;2022-10-16T17:31:07;15.00;99.90
9640;DHT22;51745;50.872;4.732;2022-10-16T17:33:56;15.00;99.90
9640;DHT22;51745;50.872;4.732;2022-10-16T17:36:44;14.70;99.90
9640;DHT22;51745;50.872;4.732;2022-10-16T17:39:34;14.60;99.90
9640;DHT22;51745;50.872;4.732;2022-10-16T17:42:21;14.40;99.90
9640;DHT22;51745;50.872;4.732;2022-10-16T17:45:09;14.40;99.90
9640;DHT22;51745;50.872;4.732;2022-10-16T17:47:57;14.40;99.90
9640;DHT22;51745;50.872;4.732;2022-10-16T17:50:48;14.40;99.90
9640;DHT22;51745;50.872;4.732;2022-10-16T17:53:35;14.50;99.90
9640;DHT22;51745;50.872;4.732;2022-10-16T17:56:24;14.40;99.90
9640;DHT22;51745;50.872;4.732;2022-10-16T17:59:13;14.40;99.90
9640;DHT22;51745;50.872;4.732;2022-10-16T18:02:01;14.40;99.90
9640;DHT22;51745;50.872;4.732;2022-10-16T18:04:50;14.40;99.90
9640;DHT22;51745;50.872;4.732;2022-10-16T18:07:38;14.70;99.90
9640;DHT22;51745;50.872;4.732;2022-10-16T18:10:27;14.40;99.90
9640;DHT22;51745;50.872;4.732;2022-10-16T18:13:16;14.30;99.90
9640;DHT22;51745;50.872;4.732;2022-10-16T18:16:05;14.30;99.90
9640;DHT22;51745;50.872;4.732;2022-10-16T18:18:54;14.30;99.90
9640;DHT22;51745;50.872;4.732;2022-10-16T18:21:42;14.30;99.90
9640;DHT22;51745;50.872;4.732;2022-10-16T18:24:30;14.30;99.90
9640;DHT22;51745;50.872;4.732;2022-10-16T18:27:17;14.30;99.90